createdAt,value
2022-10-13T00:01:15.964Z,98910.94
2022-10-13T00:03:42.152Z,98905.50
2022-10-13T00:06:08.240Z,98905.94
2022-10-13T00:08:34.324Z,98898.00
2022-10-13T00:11:00.449Z,98903.09
2022-10-13T00:13:26.541Z,98906.94
2022-10-13T00:15:52.643Z,98901.78
2022-10-13T00:18:18.782Z,98910.94
2022-10-13T00:20:44.875Z,98903.69
2022-10-13T00:23:10.981Z,98912.00
2022-10-13T00:25:37.094Z,98911.53
2022-10-13T00:28:03.184Z,98914.22
2022-10-13T00:30:29.273Z,98908.28
2022-10-13T00:32:55.382Z,98911.13
2022-10-13T00:35:21.569Z,98904.38
2022-10-13T00:37:47.655Z,98903.19
2022-10-13T00:40:13.762Z,98893.94
2022-10-13T00:42:39.879Z,98899.41
2022-10-13T00:45:05.962Z,98901.28
2022-10-13T00:47:32.066Z,98887.22
2022-10-13T00:49:58.163Z,98893.16
2022-10-13T00:52:24.263Z,98888.38
2022-10-13T00:54:50.385Z,98894.22
2022-10-13T00:57:16.465Z,98890.75
2022-10-13T00:59:42.566Z,98888.78
2022-10-13T01:02:08.678Z,98893.78
2022-10-13T01:04:34.773Z,98884.09
2022-10-13T01:07:00.891Z,98880.31
2022-10-13T01:09:27.038Z,98880.16
2022-10-13T01:11:53.140Z,98872.81
2022-10-13T01:14:19.245Z,98872.72
2022-10-13T01:16:45.353Z,98869.47
2022-10-13T01:19:11.477Z,98880.34
2022-10-13T01:21:37.573Z,98872.41
2022-10-13T01:24:03.828Z,98868.16
2022-10-13T01:26:29.921Z,98867.44
2022-10-13T01:28:56.009Z,98864.09
2022-10-13T01:31:22.113Z,98864.69
2022-10-13T01:33:48.209Z,98863.34
2022-10-13T01:36:14.300Z,98858.25
2022-10-13T01:38:40.453Z,98859.94
2022-10-13T01:41:06.534Z,98840.06
2022-10-13T01:43:32.617Z,98848.19
2022-10-13T01:45:58.751Z,98830.69
2022-10-13T01:48:24.833Z,98824.59
2022-10-13T01:50:50.923Z,98830.59
2022-10-13T01:53:17.021Z,98834.06
2022-10-13T01:55:43.127Z,98823.00
2022-10-13T01:58:09.222Z,98826.63
2022-10-13T02:00:35.442Z,98819.34
2022-10-13T02:03:01.663Z,98826.66
2022-10-13T02:05:27.768Z,98821.34
2022-10-13T02:07:53.874Z,98814.03
2022-10-13T02:10:19.971Z,98821.22
2022-10-13T02:12:46.065Z,98812.75
2022-10-13T02:15:12.173Z,98814.63
2022-10-13T02:17:38.263Z,98817.03
2022-10-13T02:20:04.347Z,98807.44
2022-10-13T02:22:30.501Z,98806.84
2022-10-13T02:24:56.612Z,98810.34
2022-10-13T02:27:22.720Z,98811.31
2022-10-13T02:29:48.839Z,98813.28
2022-10-13T02:32:14.930Z,98810.91
2022-10-13T02:34:41.023Z,98813.69
2022-10-13T02:37:07.122Z,98809.06
2022-10-13T02:39:33.213Z,98805.44
2022-10-13T02:41:59.308Z,98808.28
2022-10-13T02:44:25.780Z,98800.19
2022-10-13T02:46:51.877Z,98812.81
2022-10-13T02:49:17.983Z,98806.38
2022-10-13T02:51:44.100Z,98802.94
2022-10-13T02:54:10.197Z,98808.06
2022-10-13T02:56:36.294Z,98808.25
2022-10-13T02:59:02.414Z,98809.59
2022-10-13T03:01:28.522Z,98813.75
2022-10-13T03:03:54.609Z,98816.41
2022-10-13T03:06:20.770Z,98824.22
2022-10-13T03:08:46.868Z,98815.72
2022-10-13T03:11:12.953Z,98816.94
2022-10-13T03:13:39.073Z,98815.59
2022-10-13T03:16:05.175Z,98816.75
2022-10-13T03:18:31.278Z,98815.28
2022-10-13T03:20:57.397Z,98814.97
2022-10-13T03:23:23.479Z,98814.63
2022-10-13T03:25:49.578Z,98803.53
2022-10-13T03:28:15.740Z,98815.16
2022-10-13T03:30:41.883Z,98804.38
2022-10-13T03:33:07.982Z,98806.72
2022-10-13T03:35:34.105Z,98807.38
2022-10-13T03:38:00.197Z,98808.06
2022-10-13T03:40:26.293Z,98811.38
2022-10-13T03:42:52.420Z,98807.72
2022-10-13T03:45:18.514Z,98810.03
2022-10-13T03:47:44.615Z,98803.22
2022-10-13T03:50:10.743Z,98803.56
2022-10-13T03:52:36.925Z,98809.53
2022-10-13T03:55:03.022Z,98804.75
2022-10-13T03:57:29.137Z,98803.75
2022-10-13T03:59:55.234Z,98802.25
2022-10-13T04:02:21.683Z,98801.91
2022-10-13T04:04:48.075Z,98804.75
2022-10-13T04:07:14.165Z,98816.03
2022-10-13T04:09:40.403Z,98795.47
2022-10-13T04:12:06.523Z,98796.31
2022-10-13T04:14:32.645Z,98800.44
2022-10-13T04:16:58.760Z,98792.47
2022-10-13T04:19:24.875Z,98794.94
2022-10-13T04:21:50.982Z,98780.03
2022-10-13T04:24:17.075Z,98784.53
2022-10-13T04:26:43.253Z,98782.84
2022-10-13T04:29:09.342Z,98770.91
2022-10-13T04:31:35.444Z,98773.41
2022-10-13T04:34:01.546Z,98770.53
2022-10-13T04:36:27.685Z,98769.47
2022-10-13T04:38:53.780Z,98767.13
2022-10-13T04:41:19.897Z,98764.47
2022-10-13T04:43:45.992Z,98759.97
2022-10-13T04:46:12.116Z,98756.50
2022-10-13T04:48:38.220Z,98757.31
2022-10-13T04:51:04.317Z,98766.28
2022-10-13T04:53:30.454Z,98758.16
2022-10-13T04:55:56.582Z,98763.31
2022-10-13T04:58:22.676Z,98754.34
2022-10-13T05:00:48.858Z,98755.00
2022-10-13T05:03:15.016Z,98746.38
2022-10-13T05:05:41.122Z,98753.66
2022-10-13T05:08:07.212Z,98752.69
2022-10-13T05:10:34.834Z,98752.03
2022-10-13T05:13:01.089Z,98747.38
2022-10-13T05:15:27.214Z,98747.53
2022-10-13T05:17:53.322Z,98745.72
2022-10-13T05:20:19.423Z,98747.19
2022-10-13T05:22:45.517Z,98735.75
2022-10-13T05:25:11.648Z,98738.75
2022-10-13T05:27:37.766Z,98745.06
2022-10-13T05:30:03.853Z,98745.56
2022-10-13T05:32:29.958Z,98755.00
2022-10-13T05:34:56.050Z,98759.81
2022-10-13T05:37:22.141Z,98748.56
2022-10-13T05:39:48.950Z,98757.50
2022-10-13T05:42:15.234Z,98751.53
2022-10-13T05:44:41.337Z,98752.69
2022-10-13T05:47:07.827Z,98745.06
2022-10-13T05:49:33.990Z,98741.41
2022-10-13T05:52:00.088Z,98725.81
2022-10-13T05:54:27.006Z,98740.59
2022-10-13T05:56:53.113Z,98747.03
2022-10-13T05:59:22.267Z,98742.06
2022-10-13T06:01:50.842Z,98742.25
2022-10-13T06:04:16.978Z,98739.09
2022-10-13T06:06:43.074Z,98737.94
2022-10-13T06:09:09.203Z,98730.97
2022-10-13T06:11:35.303Z,98726.31
2022-10-13T06:14:01.410Z,98732.28
2022-10-13T06:16:27.632Z,98734.78
2022-10-13T06:18:53.729Z,98724.81
2022-10-13T06:21:19.823Z,98730.13
2022-10-13T06:23:45.922Z,98735.59
2022-10-13T06:26:12.012Z,98741.41
2022-10-13T06:28:38.129Z,98744.56
2022-10-13T06:31:04.278Z,98739.06
2022-10-13T06:33:30.390Z,98724.81
2022-10-13T06:35:56.505Z,98721.47
2022-10-13T06:38:22.612Z,98711.41
2022-10-13T06:40:48.710Z,98708.56
2022-10-13T06:43:14.810Z,98714.19
2022-10-13T06:45:40.914Z,98693.13
2022-10-13T06:48:07.020Z,98702.25
2022-10-13T06:50:33.107Z,98709.84
2022-10-13T06:52:59.222Z,98709.72
2022-10-13T06:55:25.325Z,98717.50
2022-10-13T06:57:51.419Z,98709.38
2022-10-13T07:00:17.537Z,98708.06
2022-10-13T07:02:43.658Z,98709.00
2022-10-13T07:05:09.751Z,98703.53
2022-10-13T07:07:35.872Z,98702.19
2022-10-13T07:10:01.979Z,98692.41
2022-10-13T07:12:28.088Z,98693.22
2022-10-13T07:14:54.186Z,98696.19
2022-10-13T07:17:20.649Z,98690.56
2022-10-13T07:19:47.035Z,98699.34
2022-10-13T07:22:13.153Z,98700.13
2022-10-13T07:24:39.248Z,98714.75
2022-10-13T07:27:07.803Z,98701.47
2022-10-13T07:29:34.157Z,98708.47
2022-10-13T07:32:00.258Z,98712.25
2022-10-13T07:34:26.363Z,98712.78
2022-10-13T07:36:52.485Z,98704.31
2022-10-13T07:39:18.566Z,98691.16
2022-10-13T07:41:47.542Z,98704.59
2022-10-13T07:44:16.946Z,98697.44
2022-10-13T07:46:43.048Z,98699.59
2022-10-13T07:49:11.187Z,98705.88
2022-10-13T07:51:39.878Z,98702.38
2022-10-13T07:54:05.989Z,98707.34
2022-10-13T07:56:32.073Z,98697.97
2022-10-13T07:58:58.169Z,98708.81
2022-10-13T08:01:24.293Z,98703.28
2022-10-13T08:03:50.893Z,98714.25
2022-10-13T08:06:17.070Z,98713.69
2022-10-13T08:08:43.173Z,98715.97
2022-10-13T08:11:10.024Z,98726.59
2022-10-13T08:13:37.516Z,98725.41
2022-10-13T08:16:03.602Z,98718.00
2022-10-13T08:18:29.706Z,98722.28
2022-10-13T08:21:23.857Z,98708.31
2022-10-13T08:23:42.193Z,98708.25
2022-10-13T08:26:08.306Z,98704.69
2022-10-13T08:28:34.419Z,98707.47
2022-10-13T08:31:00.679Z,98691.47
2022-10-13T08:33:26.828Z,98700.06
2022-10-13T08:35:52.928Z,98696.44
2022-10-13T08:38:19.013Z,98694.28
2022-10-13T08:40:45.156Z,98694.84
2022-10-13T08:43:11.385Z,98706.59
2022-10-13T08:45:41.986Z,98710.09
2022-10-13T08:48:08.504Z,98711.66
2022-10-13T08:50:34.608Z,98706.25
2022-10-13T08:53:00.693Z,98703.50
2022-10-13T08:55:26.837Z,98707.25
2022-10-13T08:57:52.916Z,98706.97
2022-10-13T09:00:19.016Z,98710.56
2022-10-13T09:02:45.207Z,98709.66
2022-10-13T09:05:11.293Z,98706.13
2022-10-13T09:07:37.386Z,98708.16
2022-10-13T09:10:03.518Z,98713.94
2022-10-13T09:12:29.608Z,98724.94
2022-10-13T09:14:55.822Z,98716.91
2022-10-13T09:17:21.933Z,98720.47
2022-10-13T09:19:48.043Z,98719.00
2022-10-13T09:22:14.131Z,98717.38
2022-10-13T09:24:40.712Z,98710.06
2022-10-13T09:27:06.857Z,98704.44
2022-10-13T09:29:32.958Z,98702.44
2022-10-13T09:31:59.069Z,98703.16
2022-10-13T09:34:25.154Z,98696.31
2022-10-13T09:36:51.252Z,98706.44
2022-10-13T09:39:17.372Z,98697.00
2022-10-13T09:41:43.491Z,98688.97
2022-10-13T09:44:09.583Z,98694.38
2022-10-13T09:46:35.700Z,98683.31
2022-10-13T09:49:01.777Z,98683.75
2022-10-13T09:51:27.867Z,98686.81
2022-10-13T09:53:53.999Z,98683.94
2022-10-13T09:56:20.132Z,98681.78
2022-10-13T09:58:46.251Z,98686.13
2022-10-13T10:01:12.384Z,98679.34
2022-10-13T10:03:38.479Z,98684.38
2022-10-13T10:06:04.643Z,98681.97
2022-10-13T10:08:33.742Z,98686.72
2022-10-13T10:11:05.043Z,98690.03
2022-10-13T10:13:31.139Z,98686.13
2022-10-13T10:15:57.262Z,98678.69
2022-10-13T10:18:23.348Z,98681.25
2022-10-13T10:20:52.765Z,98674.69
2022-10-13T10:23:18.904Z,98671.84
2022-10-13T10:25:45.014Z,98673.72
2022-10-13T10:28:11.131Z,98672.72
2022-10-13T10:30:37.276Z,98671.97
2022-10-13T10:33:03.375Z,98665.78
2022-10-13T10:35:29.469Z,98660.09
2022-10-13T10:37:55.585Z,98667.50
2022-10-13T10:40:21.669Z,98661.19
2022-10-13T10:42:51.968Z,98661.78
2022-10-13T10:45:18.512Z,98665.50
2022-10-13T10:47:44.603Z,98653.59
2022-10-13T10:50:10.705Z,98658.88
2022-10-13T10:52:36.810Z,98647.44
2022-10-13T10:55:02.906Z,98645.34
2022-10-13T10:57:28.996Z,98651.13
2022-10-13T10:59:55.102Z,98644.59
2022-10-13T11:02:21.634Z,98636.56
2022-10-13T11:04:47.946Z,98642.50
2022-10-13T11:07:14.060Z,98637.56
2022-10-13T11:09:40.150Z,98626.88
2022-10-13T11:12:06.232Z,98623.34
2022-10-13T11:14:32.346Z,98622.50
2022-10-13T11:16:58.446Z,98621.94
2022-10-13T11:19:24.542Z,98612.50
2022-10-13T11:21:50.645Z,98609.41
2022-10-13T11:24:16.737Z,98610.88
2022-10-13T11:26:42.831Z,98606.75
2022-10-13T11:29:08.924Z,98597.72
2022-10-13T11:31:36.209Z,98598.91
2022-10-13T11:34:02.480Z,98597.91
2022-10-13T11:36:28.939Z,98598.13
2022-10-13T11:38:55.040Z,98593.41
2022-10-13T11:41:21.135Z,98603.69
2022-10-13T11:43:47.232Z,98596.47
2022-10-13T11:46:13.349Z,98588.69
2022-10-13T11:48:39.460Z,98587.84
2022-10-13T11:51:05.579Z,98581.25
2022-10-13T11:53:31.714Z,98575.06
2022-10-13T11:55:57.822Z,98582.28
2022-10-13T11:58:23.919Z,98574.66
2022-10-13T12:00:50.009Z,98574.25
2022-10-13T12:03:16.166Z,98580.22
2022-10-13T12:05:42.325Z,98575.47
2022-10-13T12:08:08.418Z,98569.91
2022-10-13T12:10:34.512Z,98569.72
2022-10-13T12:13:00.697Z,98564.97
2022-10-13T12:15:26.789Z,98560.69
2022-10-13T12:17:52.878Z,98567.22
2022-10-13T12:20:19.044Z,98567.44
2022-10-13T12:22:45.131Z,98569.69
2022-10-13T12:25:11.203Z,98566.38
2022-10-13T12:27:39.908Z,98562.94
2022-10-13T12:30:06.009Z,98570.53
2022-10-13T12:32:32.129Z,98565.41
2022-10-13T12:34:58.236Z,98573.00
2022-10-13T12:37:24.384Z,98574.25
2022-10-13T12:39:50.519Z,98564.75
2022-10-13T12:42:16.615Z,98569.06
2022-10-13T12:44:42.708Z,98572.78
2022-10-13T12:47:08.797Z,98559.81
2022-10-13T12:49:34.899Z,98558.78
2022-10-13T12:52:01.004Z,98562.47
2022-10-13T12:54:27.147Z,98558.75
2022-10-13T12:56:56.055Z,98559.34
2022-10-13T12:59:22.721Z,98560.81
2022-10-13T13:01:48.800Z,98565.91
2022-10-13T13:04:14.934Z,98572.09
2022-10-13T13:06:41.030Z,98565.72
2022-10-13T13:09:07.154Z,98566.28
2022-10-13T13:11:33.261Z,98578.81
2022-10-13T13:13:59.348Z,98569.47
2022-10-13T13:16:25.452Z,98571.94
2022-10-13T13:18:51.581Z,98570.47
2022-10-13T13:21:17.699Z,98567.78
2022-10-13T13:23:43.829Z,98574.88
2022-10-13T13:26:10.024Z,98571.19
2022-10-13T13:28:36.137Z,98567.91
2022-10-13T13:31:02.286Z,98568.91
2022-10-13T13:33:28.389Z,98563.72
2022-10-13T13:35:54.487Z,98562.44
2022-10-13T13:38:20.592Z,98570.66
2022-10-13T13:40:47.039Z,98569.38
2022-10-13T13:43:13.130Z,98571.66
2022-10-13T13:45:39.236Z,98569.56
2022-10-13T13:48:05.328Z,98567.66
2022-10-13T13:50:31.471Z,98563.78
2022-10-13T13:52:57.575Z,98564.72
2022-10-13T13:55:23.679Z,98567.56
2022-10-13T13:57:49.774Z,98571.00
2022-10-13T14:00:15.856Z,98576.84
2022-10-13T14:02:41.965Z,98564.91
2022-10-13T14:05:08.053Z,98569.09
2022-10-13T14:07:34.138Z,98560.63
2022-10-13T14:10:02.101Z,98571.28
2022-10-13T14:12:28.822Z,98567.56
2022-10-13T14:14:54.901Z,98563.94
2022-10-13T14:17:21.562Z,98562.47
2022-10-13T14:19:47.656Z,98564.56
2022-10-13T14:22:13.762Z,98564.38
2022-10-13T14:24:39.883Z,98558.66
2022-10-13T14:27:05.967Z,98556.31
2022-10-13T14:29:32.058Z,98555.75
2022-10-13T14:31:58.185Z,98551.81
2022-10-13T14:34:24.268Z,98550.34
2022-10-13T14:36:50.352Z,98552.88
2022-10-13T14:39:16.445Z,98543.91
2022-10-13T14:41:42.527Z,98541.94
2022-10-13T14:44:08.604Z,98532.03
2022-10-13T14:46:34.937Z,98536.19
2022-10-13T14:49:01.013Z,98530.28
2022-10-13T14:51:27.101Z,98531.69
2022-10-13T14:53:53.197Z,98538.22
2022-10-13T14:56:19.309Z,98532.41
2022-10-13T14:58:45.397Z,98528.53
2022-10-13T15:01:11.494Z,98533.88
2022-10-13T15:03:37.653Z,98535.09
2022-10-13T15:06:03.771Z,98534.06
2022-10-13T15:08:29.871Z,98524.94
2022-10-13T15:10:55.960Z,98529.00
2022-10-13T15:13:22.037Z,98517.91
2022-10-13T15:15:48.160Z,98522.63
2022-10-13T15:18:14.253Z,98522.34
2022-10-13T15:20:40.339Z,98517.66
2022-10-13T15:23:06.455Z,98523.63
2022-10-13T15:25:32.558Z,98518.94
2022-10-13T15:27:58.655Z,98521.88
2022-10-13T15:30:24.752Z,98507.50
2022-10-13T15:32:50.858Z,98511.63
2022-10-13T15:35:16.961Z,98517.97
2022-10-13T15:37:43.065Z,98517.97
2022-10-13T15:40:09.166Z,98517.50
2022-10-13T15:42:35.262Z,98522.53
2022-10-13T15:45:10.370Z,98518.50
2022-10-13T15:47:37.314Z,98522.94
2022-10-13T15:50:03.490Z,98516.97
2022-10-13T15:52:34.504Z,98514.56
2022-10-13T15:55:01.159Z,98516.16
2022-10-13T15:57:27.271Z,98512.28
2022-10-13T15:59:53.356Z,98506.13
2022-10-13T16:02:19.758Z,98513.94
2022-10-13T16:04:46.044Z,98510.06
2022-10-13T16:07:12.130Z,98509.19
2022-10-13T16:09:38.224Z,98511.63
2022-10-13T16:12:04.320Z,98512.41
2022-10-13T16:14:30.402Z,98507.09
2022-10-13T16:16:58.873Z,98505.25
2022-10-13T16:19:25.501Z,98503.97
2022-10-13T16:21:51.599Z,98497.19
2022-10-13T16:24:17.675Z,98491.22
2022-10-13T16:26:43.799Z,98486.09
2022-10-13T16:29:09.903Z,98484.81
2022-10-13T16:31:36.009Z,98481.97
2022-10-13T16:34:02.129Z,98482.97
2022-10-13T16:36:28.222Z,98480.06
2022-10-13T16:38:54.302Z,98486.19
2022-10-13T16:41:20.398Z,98486.91
2022-10-13T16:43:46.485Z,98487.72
2022-10-13T16:46:12.575Z,98482.59
2022-10-13T16:48:38.698Z,98487.34
2022-10-13T16:51:04.787Z,98481.19
2022-10-13T16:53:30.884Z,98484.88
2022-10-13T16:55:57.289Z,98484.16
2022-10-13T16:58:23.374Z,98483.19
2022-10-13T17:00:49.483Z,98481.25
2022-10-13T17:03:15.616Z,98484.47
2022-10-13T17:05:41.710Z,98483.75
2022-10-13T17:08:07.815Z,98478.19
2022-10-13T17:10:33.965Z,98476.09
2022-10-13T17:13:00.065Z,98477.13
2022-10-13T17:15:26.162Z,98477.31
2022-10-13T17:17:52.285Z,98478.97
2022-10-13T17:20:18.363Z,98469.31
2022-10-13T17:22:44.449Z,98474.84
2022-10-13T17:25:10.559Z,98479.78
2022-10-13T17:27:36.679Z,98480.81
2022-10-13T17:30:02.765Z,98475.28
2022-10-13T17:32:28.875Z,98486.75
2022-10-13T17:34:54.951Z,98492.09
2022-10-13T17:37:21.402Z,98486.97
2022-10-13T17:39:47.797Z,98488.44
2022-10-13T17:42:13.876Z,98487.78
2022-10-13T17:44:39.972Z,98489.38
2022-10-13T17:47:06.085Z,98484.47
2022-10-13T17:49:32.169Z,98479.16
2022-10-13T17:51:58.259Z,98478.78
2022-10-13T17:54:24.367Z,98481.81
2022-10-13T17:56:50.455Z,98481.38
2022-10-13T17:59:16.541Z,98475.69
2022-10-13T18:01:42.723Z,98480.34
2022-10-13T18:04:08.893Z,98478.50
2022-10-13T18:06:38.257Z,98477.88
2022-10-13T18:09:04.875Z,98468.25
2022-10-13T18:11:30.960Z,98474.59
2022-10-13T18:13:57.055Z,98481.38
2022-10-13T18:16:23.180Z,98470.28
2022-10-13T18:18:49.278Z,98471.09
2022-10-13T18:21:15.373Z,98481.94
2022-10-13T18:23:41.479Z,98487.63
2022-10-13T18:26:07.572Z,98484.53
2022-10-13T18:28:33.743Z,98490.66
2022-10-13T18:30:59.879Z,98484.72
2022-10-13T18:33:25.970Z,98480.97
2022-10-13T18:35:52.064Z,98479.75
2022-10-13T18:38:18.189Z,98476.94
2022-10-13T18:40:44.283Z,98475.13
2022-10-13T18:43:10.378Z,98480.22
2022-10-13T18:45:36.490Z,98473.06
2022-10-13T18:48:02.576Z,98476.72
2022-10-13T18:50:28.664Z,98474.69
2022-10-13T18:52:54.779Z,98488.94
2022-10-13T18:55:20.864Z,98474.81
2022-10-13T18:57:46.958Z,98475.81
2022-10-13T19:00:13.120Z,98480.59
2022-10-13T19:02:39.221Z,98471.13
2022-10-13T19:05:05.359Z,98479.88
2022-10-13T19:07:34.569Z,98480.25
2022-10-13T19:10:02.954Z,98484.75
2022-10-13T19:12:29.056Z,98483.94
2022-10-13T19:14:55.228Z,98480.63
2022-10-13T19:17:21.571Z,98484.66
2022-10-13T19:19:47.909Z,98487.97
2022-10-13T19:22:14.008Z,98480.34
2022-10-13T19:24:40.142Z,98481.25
2022-10-13T19:27:06.240Z,98480.88
2022-10-13T19:29:32.349Z,98481.44
2022-10-13T19:31:58.438Z,98481.44
2022-10-13T19:34:24.535Z,98482.09
2022-10-13T19:36:50.644Z,98476.22
2022-10-13T19:39:16.736Z,98484.94
2022-10-13T19:41:42.827Z,98484.56
2022-10-13T19:44:08.958Z,98491.72
2022-10-13T19:46:35.276Z,98505.13
2022-10-13T19:49:01.421Z,98518.78
2022-10-13T19:51:27.529Z,98509.34
2022-10-13T19:53:53.613Z,98513.19
2022-10-13T19:56:19.716Z,98519.53
2022-10-13T19:58:45.869Z,98518.22
2022-10-13T20:01:12.004Z,98516.38
2022-10-13T20:03:38.152Z,98513.56
2022-10-13T20:06:04.562Z,98505.19
2022-10-13T20:08:30.637Z,98512.00
2022-10-13T20:10:56.906Z,98511.66
2022-10-13T20:13:23.021Z,98522.09
2022-10-13T20:15:52.078Z,98516.38
2022-10-13T20:18:18.164Z,98514.75
2022-10-13T20:20:44.297Z,98518.06
2022-10-13T20:23:10.388Z,98510.47
2022-10-13T20:25:36.509Z,98517.03
2022-10-13T20:28:03.384Z,98514.38
2022-10-13T20:30:29.472Z,98515.22
2022-10-13T20:32:55.562Z,98514.94
2022-10-13T20:35:21.665Z,98515.22
2022-10-13T20:37:47.745Z,98507.03
2022-10-13T20:40:13.833Z,98512.72
2022-10-13T20:42:39.938Z,98513.84
2022-10-13T20:45:06.064Z,98511.00
2022-10-13T20:47:32.161Z,98514.31
2022-10-13T20:49:58.273Z,98509.34
2022-10-13T20:52:24.358Z,98514.31
2022-10-13T20:54:50.445Z,98511.81
2022-10-13T20:57:16.557Z,98519.53
2022-10-13T20:59:42.649Z,98516.22
2022-10-13T21:02:08.727Z,98515.03
2022-10-13T21:04:34.839Z,98514.19
2022-10-13T21:07:00.944Z,98521.00
2022-10-13T21:09:27.042Z,98519.53
2022-10-13T21:11:53.140Z,98519.53
2022-10-13T21:14:19.220Z,98516.75
2022-10-13T21:16:45.326Z,98527.88
2022-10-13T21:19:11.429Z,98524.72
2022-10-13T21:21:37.546Z,98525.56
2022-10-13T21:24:03.634Z,98530.41
2022-10-13T21:26:29.762Z,98531.59
2022-10-13T21:28:55.907Z,98525.09
2022-10-13T21:31:22.012Z,98516.94
2022-10-13T21:33:48.132Z,98525.44
2022-10-13T21:36:14.285Z,98524.44
2022-10-13T21:38:40.390Z,98526.94
2022-10-13T21:41:06.685Z,98516.84
2022-10-13T21:43:32.771Z,98525.44
2022-10-13T21:45:59.065Z,98524.63
2022-10-13T21:48:25.173Z,98518.22
2022-10-13T21:50:51.273Z,98516.75
2022-10-13T21:53:17.379Z,98520.97
2022-10-13T21:55:43.486Z,98523.13
2022-10-13T21:58:09.575Z,98520.34
2022-10-13T22:00:35.729Z,98507.06
2022-10-13T22:03:02.006Z,98517.44
2022-10-13T22:05:28.103Z,98519.00
2022-10-13T22:07:54.192Z,98513.97
2022-10-13T22:10:20.581Z,98514.50
2022-10-13T22:12:46.707Z,98506.41
2022-10-13T22:15:12.817Z,98510.66
2022-10-13T22:17:38.928Z,98506.38
2022-10-13T22:20:05.017Z,98506.47
2022-10-13T22:22:31.249Z,98509.84
2022-10-13T22:24:57.409Z,98509.19
2022-10-13T22:27:23.619Z,98511.69
2022-10-13T22:29:49.890Z,98506.72
2022-10-13T22:32:16.096Z,98509.56
2022-10-13T22:34:42.178Z,98510.53
2022-10-13T22:37:08.251Z,98504.94
2022-10-13T22:39:34.365Z,98515.28
2022-10-13T22:42:00.463Z,98505.16
2022-10-13T22:44:26.683Z,98511.13
2022-10-13T22:46:52.796Z,98505.47
2022-10-13T22:49:18.871Z,98515.94
2022-10-13T22:51:45.136Z,98514.31
2022-10-13T22:54:11.282Z,98503.84
2022-10-13T22:56:37.394Z,98514.75
2022-10-13T22:59:03.494Z,98509.28
2022-10-13T23:01:29.795Z,98509.44
2022-10-13T23:03:55.967Z,98518.16
2022-10-13T23:06:22.103Z,98509.31
2022-10-13T23:08:48.196Z,98510.19
2022-10-13T23:11:14.285Z,98509.16
2022-10-13T23:13:40.365Z,98507.97
2022-10-13T23:16:06.585Z,98508.13
2022-10-13T23:18:32.757Z,98506.97
2022-10-13T23:20:58.861Z,98508.78
2022-10-13T23:23:24.994Z,98510.25
2022-10-13T23:25:51.088Z,98503.31
2022-10-13T23:28:17.222Z,98499.84
2022-10-13T23:30:43.370Z,98498.53
2022-10-13T23:33:09.481Z,98498.00
2022-10-13T23:35:35.584Z,98493.50
2022-10-13T23:38:02.088Z,98489.00
2022-10-13T23:40:28.171Z,98488.66
2022-10-13T23:42:54.244Z,98489.00
2022-10-13T23:45:20.352Z,98490.66
2022-10-13T23:47:46.471Z,98483.81
2022-10-13T23:50:12.573Z,98483.63
2022-10-13T23:52:38.681Z,98479.50
2022-10-13T23:55:04.764Z,98478.31
2022-10-13T23:57:30.855Z,98476.66
2022-10-13T23:59:57.023Z,98476.31
